TRA6513 EHEH-EBBR

Flight info

Callsign TRA6513
Flight time 0h 28m
Altitude 10000
Route ELSIK
Aircraft A320/M-SDE3FGHIRWY/LB1

Departure

Time 2026-05-05 18:34
Airport Eindhoven Airport (EHEH)

Arrival

Time 2026-05-05 19:02
Airport Brussels Airport (EBBR)
Time Latitude Longitude Altitude Speed Heading
2026-05-05 18:07 51.45823 5.39009 76 ft 0 kts 126°
2026-05-05 18:22 51.45825 5.39006 68 ft 2 kts 126°
2026-05-05 18:22 51.45836 5.38982 64 ft 3 kts 126°
2026-05-05 18:22 51.45847 5.38956 65 ft 3 kts 122°
2026-05-05 18:23 51.45857 5.38928 68 ft 3 kts 127°
2026-05-05 18:23 51.45863 5.38912 65 ft 2 kts 202°
2026-05-05 18:23 51.45872 5.38919 66 ft 3 kts 215°
2026-05-05 18:23 51.45883 5.38932 70 ft 1 kts 215°
2026-05-05 18:24 51.45883 5.38933 69 ft 0 kts 215°
2026-05-05 18:26 51.45883 5.38932 70 ft 0 kts 215°
2026-05-05 18:27 51.45858 5.38905 65 ft 9 kts 215°
2026-05-05 18:27 51.45798 5.38837 74 ft 12 kts 219°
2026-05-05 18:27 51.45799 5.38766 71 ft 7 kts 307°
2026-05-05 18:27 51.45809 5.38743 69 ft 0 kts 305°
2026-05-05 18:28 51.45813 5.38733 75 ft 6 kts 304°
2026-05-05 18:29 51.45872 5.38596 78 ft 17 kts 305°
2026-05-05 18:29 51.45947 5.38428 78 ft 20 kts 306°
2026-05-05 18:29 51.45988 5.38279 74 ft 12 kts 245°
2026-05-05 18:29 51.45875 5.38143 71 ft 32 kts 216°
2026-05-05 18:30 51.45685 5.37925 74 ft 34 kts 215°
2026-05-05 18:30 51.45487 5.37704 84 ft 36 kts 214°
2026-05-05 18:30 51.45277 5.37473 83 ft 38 kts 214°
2026-05-05 18:30 51.45055 5.37221 81 ft 39 kts 216°
2026-05-05 18:31 51.44834 5.36961 84 ft 40 kts 215°
2026-05-05 18:31 51.44658 5.36770 83 ft 15 kts 213°
2026-05-05 18:31 51.44557 5.36661 70 ft 19 kts 213°
2026-05-05 18:31 51.44422 5.36510 78 ft 32 kts 214°
2026-05-05 18:32 51.44232 5.36300 83 ft 34 kts 214°
2026-05-05 18:32 51.44080 5.36129 83 ft 19 kts 215°
2026-05-05 18:32 51.43989 5.36078 83 ft 15 kts 154°
2026-05-05 18:32 51.43939 5.36234 79 ft 15 kts 72°
2026-05-05 18:33 51.43979 5.36293 85 ft 0 kts 38°
2026-05-05 18:33 51.43980 5.36294 85 ft 1 kts 38°
2026-05-05 18:33 51.44093 5.36436 82 ft 55 kts 37°
2026-05-05 18:34 51.44606 5.36991 84 ft 117 kts 35°
2026-05-05 18:34 51.45399 5.37863 183 ft 151 kts 33°
2026-05-05 18:34 51.46279 5.38843 724 ft 158 kts 34°
2026-05-05 18:34 51.47186 5.39848 1430 ft 161 kts 35°
2026-05-05 18:35 51.48150 5.40937 1806 ft 179 kts 35°
2026-05-05 18:35 51.49231 5.42159 2177 ft 199 kts 35°
2026-05-05 18:35 51.50398 5.43472 2823 ft 208 kts 34°
2026-05-05 18:35 51.51757 5.44287 3528 ft 218 kts
2026-05-05 18:36 51.53194 5.43443 4245 ft 231 kts 320°
2026-05-05 18:36 51.54009 5.41196 5046 ft 242 kts 281°
2026-05-05 18:36 51.53816 5.38488 5663 ft 252 kts 245°
2026-05-05 18:36 51.52685 5.36399 5820 ft 250 kts 211°
2026-05-05 18:37 51.51102 5.35259 5860 ft 250 kts 196°
2026-05-05 18:37 51.49428 5.34526 5865 ft 249 kts 192°
2026-05-05 18:37 51.47740 5.33891 5864 ft 249 kts 192°
2026-05-05 18:37 51.46055 5.33230 5869 ft 249 kts 193°
2026-05-05 18:38 51.44378 5.32509 5866 ft 249 kts 194°
2026-05-05 18:38 51.42713 5.31741 5867 ft 249 kts 195°
2026-05-05 18:38 51.41091 5.30730 6082 ft 255 kts 209°
2026-05-05 18:38 51.39616 5.29039 6675 ft 273 kts 222°
2026-05-05 18:39 51.38172 5.26952 7334 ft 284 kts 222°
2026-05-05 18:39 51.36698 5.24802 8196 ft 288 kts 223°
2026-05-05 18:39 51.35216 5.22636 9122 ft 290 kts 222°
2026-05-05 18:39 51.33709 5.20438 9678 ft 294 kts 222°
2026-05-05 18:40 51.32201 5.18241 9833 ft 293 kts 222°
2026-05-05 18:40 51.30693 5.16053 9872 ft 292 kts 222°
2026-05-05 18:40 51.29188 5.13874 9873 ft 292 kts 222°
2026-05-05 18:40 51.27683 5.11695 9875 ft 292 kts 222°
2026-05-05 18:41 51.26177 5.09512 9877 ft 292 kts 222°
2026-05-05 18:41 51.24673 5.07333 9877 ft 292 kts 222°
2026-05-05 18:41 51.23168 5.05153 9880 ft 292 kts 222°
2026-05-05 18:41 51.21866 5.02688 9878 ft 292 kts 243°
2026-05-05 18:42 51.21338 4.99594 9881 ft 291 kts 269°
2026-05-05 18:42 51.21712 4.96499 9883 ft 290 kts 296°
2026-05-05 18:42 51.22898 4.93868 9889 ft 289 kts 313°
2026-05-05 18:42 51.24260 4.91496 9889 ft 290 kts 313°
2026-05-05 18:43 51.25626 4.89119 9892 ft 291 kts 313°
2026-05-05 18:43 51.26990 4.86739 9895 ft 291 kts 313°
2026-05-05 18:43 51.28338 4.84380 9746 ft 290 kts 313°
2026-05-05 18:43 51.29695 4.81996 9619 ft 290 kts 313°
2026-05-05 18:44 51.31046 4.79616 9485 ft 289 kts 313°
2026-05-05 18:44 51.32394 4.77237 9354 ft 288 kts 313°
2026-05-05 18:44 51.33739 4.74862 9222 ft 288 kts 313°
2026-05-05 18:44 51.35077 4.72496 9089 ft 287 kts 313°
2026-05-05 18:45 51.36416 4.70124 8953 ft 286 kts 312°
2026-05-05 18:45 51.37743 4.67767 8823 ft 285 kts 313°
2026-05-05 18:45 51.39070 4.65410 8693 ft 284 kts 313°
2026-05-05 18:45 51.40386 4.63052 8565 ft 284 kts 310°
2026-05-05 18:46 51.41302 4.60287 8439 ft 283 kts 284°
2026-05-05 18:46 51.41379 4.57160 8307 ft 284 kts 258°
2026-05-05 18:46 51.40601 4.54276 8181 ft 284 kts 233°
2026-05-05 18:46 51.39221 4.52023 8053 ft 285 kts 223°
2026-05-05 18:47 51.37769 4.49868 7916 ft 285 kts 223°
2026-05-05 18:47 51.36317 4.47713 7885 ft 285 kts 223°
2026-05-05 18:47 51.34902 4.45504 7877 ft 285 kts 225°
2026-05-05 18:47 51.33472 4.43301 7888 ft 285 kts 223°
2026-05-05 18:48 51.32013 4.41161 7890 ft 285 kts 222°
2026-05-05 18:48 51.30540 4.39031 7890 ft 285 kts 222°
2026-05-05 18:48 51.29070 4.36899 7892 ft 285 kts 223°
2026-05-05 18:48 51.27608 4.34764 7891 ft 285 kts 223°
2026-05-05 18:49 51.26144 4.32615 7890 ft 285 kts 223°
2026-05-05 18:49 51.24686 4.30464 7891 ft 285 kts 223°
2026-05-05 18:49 51.23229 4.28311 7890 ft 285 kts 223°
2026-05-05 18:49 51.21771 4.26159 7889 ft 285 kts 223°
2026-05-05 18:50 51.20314 4.24013 7883 ft 285 kts 223°
2026-05-05 18:50 51.18880 4.21903 7749 ft 276 kts 223°
2026-05-05 18:50 51.17489 4.19855 7617 ft 268 kts 223°
2026-05-05 18:50 51.16114 4.17923 7493 ft 259 kts 214°
2026-05-05 18:51 51.14521 4.16669 7369 ft 255 kts 202°
2026-05-05 18:51 51.12838 4.15505 7247 ft 275 kts 204°
2026-05-05 18:51 51.11087 4.14157 7122 ft 282 kts 206°
2026-05-05 18:51 51.09333 4.12732 6971 ft 284 kts 207°
2026-05-05 18:52 51.07535 4.11250 6209 ft 299 kts 207°
2026-05-05 18:52 51.05637 4.09688 5216 ft 312 kts 207°
2026-05-05 18:52 51.03670 4.08080 3880 ft 325 kts 206°
2026-05-05 18:52 51.01626 4.06423 2749 ft 330 kts 206°
2026-05-05 18:53 50.99628 4.04813 2290 ft 312 kts 206°
2026-05-05 18:53 50.97720 4.03513 2119 ft 285 kts 191°
2026-05-05 18:53 50.95812 4.03359 1992 ft 272 kts 174°
2026-05-05 18:53 50.93936 4.03576 1994 ft 270 kts 173°
2026-05-05 18:54 50.92060 4.03826 1997 ft 271 kts 172°
2026-05-05 18:54 50.90180 4.04073 1997 ft 272 kts 172°
2026-05-05 18:54 50.88296 4.04317 1996 ft 271 kts 173°
2026-05-05 18:54 50.86468 4.04688 1992 ft 256 kts 159°
2026-05-05 18:55 50.85036 4.06054 1996 ft 230 kts 129°
2026-05-05 18:55 50.84027 4.07882 1985 ft 213 kts 123°
2026-05-05 18:55 50.83290 4.09759 1995 ft 191 kts 107°
2026-05-05 18:55 50.82845 4.11638 1985 ft 173 kts 101°
2026-05-05 18:56 50.82600 4.13362 2029 ft 151 kts 93°
2026-05-05 18:56 50.82442 4.14925 2021 ft 140 kts 92°
2026-05-05 18:56 50.82301 4.16433 2004 ft 136 kts 89°
2026-05-05 18:56 50.82382 4.17891 2008 ft 132 kts 74°
2026-05-05 18:57 50.82575 4.19307 2003 ft 132 kts 72°
2026-05-05 18:57 50.82786 4.20722 1999 ft 132 kts 71°
2026-05-05 18:57 50.82994 4.22134 2001 ft 132 kts 71°
2026-05-05 18:57 50.83197 4.23534 2009 ft 133 kts 72°
2026-05-05 18:58 50.83442 4.24933 1957 ft 132 kts 68°
2026-05-05 18:58 50.83715 4.26317 1751 ft 131 kts 66°
2026-05-05 18:58 50.84036 4.27647 1576 ft 129 kts 67°
2026-05-05 18:58 50.84338 4.29005 1601 ft 130 kts 65°
2026-05-05 18:59 50.84646 4.30348 1684 ft 143 kts 65°
2026-05-05 18:59 50.85021 4.31950 1658 ft 159 kts 65°
2026-05-05 18:59 50.85403 4.33628 1772 ft 158 kts 66°
2026-05-05 18:59 50.85760 4.35163 1817 ft 141 kts 64°
2026-05-05 19:00 50.86110 4.36588 1618 ft 136 kts 65°
2026-05-05 19:00 50.86423 4.37970 1364 ft 132 kts 65°
2026-05-05 19:00 50.86743 4.39333 1114 ft 133 kts 65°
2026-05-05 19:00 50.87079 4.40716 836 ft 136 kts 65°
2026-05-05 19:01 50.87441 4.42090 666 ft 136 kts 63°
2026-05-05 19:01 50.87819 4.43467 689 ft 136 kts 64°
2026-05-05 19:01 50.88168 4.44863 698 ft 138 kts 66°
2026-05-05 19:01 50.88506 4.46291 538 ft 138 kts 66°
2026-05-05 19:02 50.88837 4.47724 293 ft 137 kts 67°
2026-05-05 19:02 50.89152 4.49098 172 ft 121 kts 68°
2026-05-05 19:02 50.89370 4.50048 174 ft 51 kts 69°
2026-05-05 19:02 50.89440 4.50321 170 ft 11 kts 44°
2026-05-05 19:03 50.89496 4.50282 171 ft 11 kts 281°
2026-05-05 19:03 50.89511 4.50157 173 ft 12 kts 280°
2026-05-05 19:03 50.89513 4.50142 173 ft 0 kts 280°
2026-05-05 19:03 50.89513 4.50139 173 ft 2 kts 280°
2026-05-05 19:04 50.89527 4.50006 171 ft 21 kts 279°
2026-05-05 19:04 50.89482 4.49727 171 ft 32 kts 250°
2026-05-05 19:04 50.89395 4.49353 167 ft 38 kts 249°
2026-05-05 19:04 50.89322 4.49021 166 ft 20 kts 253°
2026-05-05 19:05 50.89302 4.48915 166 ft 2 kts 253°